createdAt,value
2017-09-09T00:00:33.056Z,57.20
2017-09-09T00:01:33.090Z,56.84
2017-09-09T00:02:33.095Z,56.84
2017-09-09T00:03:33.118Z,57.39
2017-09-09T00:04:33.139Z,56.91
2017-09-09T00:05:33.167Z,57.39
2017-09-09T00:06:33.183Z,57.39
2017-09-09T00:07:33.204Z,57.20
2017-09-09T00:08:33.224Z,57.20
2017-09-09T00:09:33.265Z,57.03
2017-09-09T00:10:33.267Z,57.20
2017-09-09T00:11:33.290Z,56.91
2017-09-09T00:12:33.319Z,56.91
2017-09-09T00:13:33.335Z,56.71
2017-09-09T00:14:33.354Z,57.10
2017-09-09T00:15:33.378Z,57.20
2017-09-09T00:16:33.403Z,57.20
2017-09-09T00:17:33.420Z,57.20
2017-09-09T00:18:33.450Z,57.10
2017-09-09T00:19:33.462Z,57.00
2017-09-09T00:20:33.483Z,57.22
2017-09-09T00:21:33.507Z,57.39
2017-09-09T00:22:33.527Z,57.00
2017-09-09T00:23:33.546Z,57.20
2017-09-09T00:24:33.569Z,57.20
2017-09-09T00:25:33.592Z,57.20
2017-09-09T00:26:33.612Z,57.00
2017-09-09T00:27:33.635Z,57.20
2017-09-09T00:28:33.657Z,57.20
2017-09-09T00:29:33.682Z,57.20
2017-09-09T00:30:33.698Z,57.20
2017-09-09T00:31:33.724Z,57.10
2017-09-09T00:32:33.741Z,57.20
2017-09-09T00:33:33.764Z,56.91
2017-09-09T00:34:33.786Z,57.10
2017-09-09T00:35:33.808Z,57.20
2017-09-09T00:36:33.835Z,57.10
2017-09-09T00:37:33.850Z,57.20
2017-09-09T00:38:33.870Z,57.20
2017-09-09T00:39:33.897Z,57.20
2017-09-09T00:40:33.916Z,57.20
2017-09-09T00:41:33.940Z,57.10
2017-09-09T00:42:33.958Z,56.91
2017-09-09T00:43:33.990Z,57.20
2017-09-09T00:44:34.020Z,57.20
2017-09-09T00:45:34.024Z,56.91
2017-09-09T00:46:34.045Z,57.29
2017-09-09T00:47:34.066Z,56.81
2017-09-09T00:48:34.096Z,56.91
2017-09-09T00:49:34.112Z,56.91
2017-09-09T00:50:34.132Z,56.71
2017-09-09T00:51:34.172Z,57.10
2017-09-09T00:52:34.184Z,57.10
2017-09-09T00:53:34.195Z,57.29
2017-09-09T00:54:34.219Z,57.20
2017-09-09T00:55:34.239Z,57.29
2017-09-09T00:56:34.264Z,56.71
2017-09-09T00:57:34.287Z,56.91
2017-09-09T00:58:34.304Z,56.91
2017-09-09T00:59:34.325Z,56.91
2017-09-09T01:00:34.352Z,56.81
2017-09-09T01:01:34.371Z,56.91
2017-09-09T01:02:34.397Z,57.00
2017-09-09T01:03:34.413Z,56.81
2017-09-09T01:04:34.433Z,56.71
2017-09-09T01:05:34.456Z,56.71
2017-09-09T01:06:34.479Z,57.29
2017-09-09T01:07:34.498Z,56.71
2017-09-09T01:08:34.519Z,57.00
2017-09-09T01:09:34.543Z,56.91
2017-09-09T01:10:34.564Z,57.00
2017-09-09T01:11:34.586Z,56.71
2017-09-09T01:12:34.607Z,56.91
2017-09-09T01:13:34.627Z,56.91
2017-09-09T01:14:34.649Z,56.81
2017-09-09T01:15:34.668Z,56.91
2017-09-09T01:16:34.694Z,57.00
2017-09-09T01:17:34.712Z,57.00
2017-09-09T01:18:34.736Z,56.71
2017-09-09T01:19:34.757Z,57.00
2017-09-09T01:20:34.780Z,57.10
2017-09-09T01:21:34.803Z,56.81
2017-09-09T01:22:34.826Z,56.91
2017-09-09T01:23:34.847Z,56.91
2017-09-09T01:24:34.863Z,57.00
2017-09-09T01:25:34.889Z,57.10
2017-09-09T01:26:34.907Z,57.00
2017-09-09T01:27:34.931Z,56.91
2017-09-09T01:28:34.953Z,57.00
2017-09-09T01:29:34.985Z,56.81
2017-09-09T01:30:34.995Z,56.91
2017-09-09T01:31:35.018Z,56.81
2017-09-09T01:32:35.037Z,56.71
2017-09-09T01:33:35.060Z,57.00
2017-09-09T01:34:35.081Z,56.91
2017-09-09T01:35:35.107Z,56.91
2017-09-09T01:36:35.132Z,57.00
2017-09-09T01:37:35.145Z,57.10
2017-09-09T01:38:35.179Z,57.29
2017-09-09T01:39:35.188Z,56.91
2017-09-09T01:40:35.216Z,56.91
2017-09-09T01:41:35.234Z,56.81
2017-09-09T01:42:35.255Z,57.00
2017-09-09T01:43:35.280Z,56.81
2017-09-09T01:44:35.299Z,57.10
2017-09-09T01:45:35.326Z,57.00
2017-09-09T01:46:35.338Z,57.00
2017-09-09T01:47:35.361Z,57.00
2017-09-09T01:48:35.396Z,57.00
2017-09-09T01:49:35.409Z,57.20
2017-09-09T01:50:35.435Z,57.39
2017-09-09T01:51:35.448Z,57.29
2017-09-09T01:52:35.470Z,56.91
2017-09-09T01:53:35.492Z,57.29
2017-09-09T01:54:35.524Z,57.29
2017-09-09T01:55:35.535Z,57.20
2017-09-09T01:56:35.565Z,57.29
2017-09-09T01:57:35.577Z,57.20
2017-09-09T01:58:35.596Z,57.29
2017-09-09T01:59:35.621Z,57.29
2017-09-09T02:00:35.642Z,57.29
2017-09-09T02:01:35.665Z,57.10
2017-09-09T02:02:35.683Z,57.29
2017-09-09T02:03:35.705Z,56.91
2017-09-09T02:04:35.735Z,57.00
2017-09-09T02:05:35.759Z,56.91
2017-09-09T02:06:35.779Z,57.29
2017-09-09T02:07:35.794Z,57.29
2017-09-09T02:08:35.942Z,57.29
2017-09-09T02:09:35.846Z,56.81
2017-09-09T02:10:35.855Z,57.68
2017-09-09T02:11:35.880Z,57.39
2017-09-09T02:12:35.901Z,57.29
2017-09-09T02:13:35.927Z,57.29
2017-09-09T02:14:35.944Z,57.20
2017-09-09T02:15:35.966Z,57.39
2017-09-09T02:16:35.989Z,56.91
2017-09-09T02:17:36.025Z,57.48
2017-09-09T02:18:36.030Z,57.87
2017-09-09T02:19:36.051Z,57.68
2017-09-09T02:20:36.073Z,57.58
2017-09-09T02:21:36.098Z,57.48
2017-09-09T02:22:36.138Z,57.68
2017-09-09T02:23:36.139Z,57.68
2017-09-09T02:24:36.162Z,57.48
2017-09-09T02:25:36.180Z,57.77
2017-09-09T02:26:36.208Z,57.58
2017-09-09T02:27:36.224Z,57.68
2017-09-09T02:28:36.246Z,57.58
2017-09-09T02:29:36.272Z,57.58
2017-09-09T02:30:36.287Z,57.68
2017-09-09T02:31:36.311Z,57.68
2017-09-09T02:32:36.350Z,57.58
2017-09-09T02:33:36.375Z,57.39
2017-09-09T02:34:36.376Z,57.58
2017-09-09T02:35:36.397Z,57.68
2017-09-09T02:36:36.419Z,57.77
2017-09-09T02:37:36.445Z,57.68
2017-09-09T02:38:36.460Z,57.68
2017-09-09T02:39:36.484Z,57.58
2017-09-09T02:40:36.504Z,57.77
2017-09-09T02:41:36.527Z,57.39
2017-09-09T02:42:36.545Z,57.68
2017-09-09T02:43:36.569Z,57.48
2017-09-09T02:44:36.593Z,57.77
2017-09-09T02:45:36.612Z,57.68
2017-09-09T02:46:36.632Z,57.87
2017-09-09T02:47:36.662Z,57.58
2017-09-09T02:48:36.733Z,57.58
2017-09-09T02:49:36.707Z,57.58
2017-09-09T02:50:36.728Z,57.87
2017-09-09T02:51:36.739Z,57.58
2017-09-09T02:52:36.764Z,57.68
2017-09-09T02:53:36.787Z,57.58
2017-09-09T02:54:36.803Z,57.58
2017-09-09T02:55:36.828Z,57.68
2017-09-09T02:56:36.845Z,57.68
2017-09-09T02:57:36.870Z,57.87
2017-09-09T02:58:36.896Z,57.68
2017-09-09T02:59:36.916Z,57.77
2017-09-09T03:00:36.937Z,57.58
2017-09-09T03:01:36.960Z,57.77
2017-09-09T03:02:36.975Z,57.77
2017-09-09T03:03:36.997Z,57.68
2017-09-09T03:04:37.021Z,57.77
2017-09-09T03:05:37.041Z,57.77
2017-09-09T03:06:37.065Z,57.87
2017-09-09T03:07:37.087Z,57.48
2017-09-09T03:08:37.104Z,57.77
2017-09-09T03:09:37.128Z,57.58
2017-09-09T03:10:37.145Z,57.68
2017-09-09T03:11:37.171Z,57.87
2017-09-09T03:12:37.190Z,57.58
2017-09-09T03:13:37.346Z,57.68
2017-09-09T03:14:37.232Z,57.58
2017-09-09T03:15:37.256Z,57.68
2017-09-09T03:16:37.277Z,57.48
2017-09-09T03:17:37.300Z,57.48
2017-09-09T03:18:37.321Z,57.87
2017-09-09T03:19:37.348Z,57.87
2017-09-09T03:20:37.363Z,57.58
2017-09-09T03:21:37.397Z,57.68
2017-09-09T03:22:37.407Z,57.58
2017-09-09T03:23:37.540Z,57.77
2017-09-09T03:24:37.451Z,57.58
2017-09-09T03:25:37.472Z,57.87
2017-09-09T03:26:37.492Z,57.68
2017-09-09T03:27:37.519Z,57.77
2017-09-09T03:28:37.539Z,58.06
2017-09-09T03:29:37.557Z,57.87
2017-09-09T03:30:37.578Z,57.87
2017-09-09T03:31:37.598Z,57.77
2017-09-09T03:32:37.620Z,57.97
2017-09-09T03:33:37.643Z,57.77
2017-09-09T03:34:37.672Z,57.68
2017-09-09T03:35:37.685Z,57.97
2017-09-09T03:36:37.706Z,57.58
2017-09-09T03:37:37.729Z,57.68
2017-09-09T03:38:37.749Z,57.77
2017-09-09T03:39:37.772Z,57.77
2017-09-09T03:40:37.800Z,57.77
2017-09-09T03:41:37.816Z,57.87
2017-09-09T03:42:37.838Z,57.20
2017-09-09T03:43:37.859Z,58.06
2017-09-09T03:44:37.889Z,57.39
2017-09-09T03:45:37.901Z,57.77
2017-09-09T03:46:37.931Z,57.58
2017-09-09T03:47:37.942Z,57.77
2017-09-09T03:48:37.967Z,57.29
2017-09-09T03:49:37.996Z,57.77
2017-09-09T03:50:38.013Z,58.06
2017-09-09T03:51:38.030Z,58.06
2017-09-09T03:52:38.054Z,57.68
2017-09-09T03:53:38.082Z,58.06
2017-09-09T03:54:38.097Z,58.06
2017-09-09T03:55:38.117Z,57.87
2017-09-09T03:56:38.139Z,57.77
2017-09-09T03:57:38.167Z,57.77
2017-09-09T03:58:38.179Z,57.97
2017-09-09T03:59:38.204Z,57.87
2017-09-09T04:00:38.226Z,57.68
2017-09-09T04:01:38.254Z,57.48
2017-09-09T04:02:38.268Z,57.58
2017-09-09T04:03:38.289Z,57.58
2017-09-09T04:04:38.311Z,57.48
2017-09-09T04:05:38.331Z,57.77
2017-09-09T04:06:38.363Z,57.68
2017-09-09T04:07:38.377Z,57.77
2017-09-09T04:08:38.399Z,57.68
2017-09-09T04:09:38.423Z,57.77
2017-09-09T04:10:38.438Z,57.87
2017-09-09T04:11:38.460Z,57.58
2017-09-09T04:12:38.483Z,57.48
2017-09-09T04:13:38.506Z,57.58
2017-09-09T04:14:38.526Z,57.29
2017-09-09T04:15:38.546Z,57.77
2017-09-09T04:16:38.579Z,57.48
2017-09-09T04:17:38.592Z,57.77
2017-09-09T04:18:38.615Z,57.58
2017-09-09T04:19:38.631Z,57.58
2017-09-09T04:20:38.659Z,57.68
2017-09-09T04:21:38.676Z,57.58
2017-09-09T04:22:38.701Z,57.77
2017-09-09T04:23:38.730Z,57.87
2017-09-09T04:24:38.742Z,57.77
2017-09-09T04:25:38.769Z,57.77
2017-09-09T04:26:38.784Z,57.58
2017-09-09T04:27:38.814Z,57.68
2017-09-09T04:28:38.832Z,57.77
2017-09-09T04:29:38.861Z,58.06
2017-09-09T04:30:38.868Z,57.87
2017-09-09T04:31:38.899Z,57.97
2017-09-09T04:32:38.917Z,57.68
2017-09-09T04:33:38.956Z,57.87
2017-09-09T04:34:38.955Z,57.97
2017-09-09T04:35:38.991Z,57.87
2017-09-09T04:36:39.000Z,57.97
2017-09-09T04:37:39.020Z,58.06
2017-09-09T04:38:39.043Z,58.06
2017-09-09T04:39:39.063Z,57.68
2017-09-09T04:40:39.084Z,57.77
2017-09-09T04:41:39.105Z,57.87
2017-09-09T04:42:39.131Z,57.77
2017-09-09T04:43:39.149Z,57.97
2017-09-09T04:44:39.178Z,57.87
2017-09-09T04:45:39.197Z,57.68
2017-09-09T04:46:39.214Z,57.87
2017-09-09T04:47:39.236Z,57.97
2017-09-09T04:48:39.256Z,57.97
2017-09-09T04:49:39.291Z,57.87
2017-09-09T04:50:39.300Z,57.77
2017-09-09T04:51:39.325Z,58.06
2017-09-09T04:52:39.350Z,57.97
2017-09-09T04:53:39.369Z,57.58
2017-09-09T04:54:39.387Z,57.68
2017-09-09T04:55:39.431Z,57.97
2017-09-09T04:56:39.434Z,57.97
2017-09-09T04:57:39.477Z,57.68
2017-09-09T04:58:39.474Z,57.68
2017-09-09T04:59:39.493Z,57.97
2017-09-09T05:00:39.515Z,57.77
2017-09-09T05:01:39.543Z,58.06
2017-09-09T05:02:39.568Z,57.97
2017-09-09T05:03:39.587Z,57.77
2017-09-09T05:04:39.618Z,57.87
2017-09-09T05:05:39.632Z,57.68
2017-09-09T05:06:39.643Z,57.48
2017-09-09T05:07:39.670Z,57.77
2017-09-09T05:08:39.691Z,57.77
2017-09-09T05:09:39.729Z,57.87
2017-09-09T05:10:39.733Z,57.77
2017-09-09T05:11:39.756Z,57.77
2017-09-09T05:12:39.775Z,57.77
2017-09-09T05:13:39.800Z,57.58
2017-09-09T05:14:39.827Z,57.58
2017-09-09T05:15:39.850Z,57.77
2017-09-09T05:16:39.873Z,57.87
2017-09-09T05:17:39.882Z,57.58
2017-09-09T05:18:39.908Z,57.58
2017-09-09T05:19:39.923Z,57.58
2017-09-09T05:20:39.952Z,57.68
2017-09-09T05:21:39.977Z,57.58
2017-09-09T05:22:40.003Z,57.68
2017-09-09T05:23:40.020Z,57.68
2017-09-09T05:24:40.034Z,57.97
2017-09-09T05:25:40.061Z,57.87
2017-09-09T05:26:40.077Z,57.97
2017-09-09T05:27:40.103Z,57.58
2017-09-09T05:28:40.120Z,57.68
2017-09-09T05:29:40.139Z,57.68
2017-09-09T05:30:40.163Z,58.15
2017-09-09T05:31:40.185Z,57.97
2017-09-09T05:32:40.216Z,57.97
2017-09-09T05:33:40.226Z,57.87
2017-09-09T05:34:40.246Z,57.97
2017-09-09T05:35:40.268Z,58.15
2017-09-09T05:36:40.294Z,58.06
2017-09-09T05:37:40.317Z,57.87
2017-09-09T05:38:40.333Z,57.87
2017-09-09T05:39:40.363Z,57.97
2017-09-09T05:40:40.384Z,57.87
2017-09-09T05:41:40.399Z,57.97
2017-09-09T05:42:40.418Z,57.97
2017-09-09T05:43:40.443Z,57.87
2017-09-09T05:44:40.469Z,57.97
2017-09-09T05:45:40.484Z,57.87
2017-09-09T05:46:40.507Z,57.97
2017-09-09T05:47:40.525Z,58.15
2017-09-09T05:48:40.567Z,58.06
2017-09-09T05:49:40.573Z,58.06
2017-09-09T05:50:40.595Z,58.06
2017-09-09T05:51:40.612Z,57.97
2017-09-09T05:52:40.635Z,57.97
2017-09-09T05:53:40.792Z,57.48
2017-09-09T05:54:40.691Z,57.97
2017-09-09T05:55:40.705Z,57.77
2017-09-09T05:56:40.728Z,57.87
2017-09-09T05:57:40.745Z,57.87
2017-09-09T05:58:40.774Z,57.87
2017-09-09T05:59:40.797Z,58.15
2017-09-09T06:00:40.811Z,57.97
2017-09-09T06:01:40.861Z,58.06
2017-09-09T06:02:40.854Z,57.58
2017-09-09T06:03:40.879Z,57.77
2017-09-09T06:04:40.903Z,58.45
2017-09-09T06:05:40.923Z,57.77
2017-09-09T06:06:40.943Z,57.97
2017-09-09T06:07:40.958Z,57.87
2017-09-09T06:08:40.979Z,57.97
2017-09-09T06:09:40.999Z,58.45
2017-09-09T06:10:41.021Z,57.97
2017-09-09T06:11:41.043Z,57.97
2017-09-09T06:12:41.065Z,58.45
2017-09-09T06:13:41.089Z,58.06
2017-09-09T06:14:41.110Z,58.25
2017-09-09T06:15:41.145Z,57.77
2017-09-09T06:16:41.157Z,58.06
2017-09-09T06:17:41.182Z,58.25
2017-09-09T06:18:41.195Z,58.25
2017-09-09T06:19:41.221Z,58.15
2017-09-09T06:20:41.239Z,58.35
2017-09-09T06:21:41.270Z,58.15
2017-09-09T06:22:41.282Z,58.06
2017-09-09T06:23:41.301Z,57.97
2017-09-09T06:24:41.323Z,58.25
2017-09-09T06:25:41.349Z,57.87
2017-09-09T06:26:41.366Z,57.97
2017-09-09T06:27:41.394Z,58.06
2017-09-09T06:28:41.443Z,57.77
2017-09-09T06:29:41.438Z,58.45
2017-09-09T06:30:41.461Z,58.06
2017-09-09T06:31:41.488Z,58.06
2017-09-09T06:32:41.501Z,57.87
2017-09-09T06:33:41.519Z,58.15
2017-09-09T06:34:41.543Z,58.25
2017-09-09T06:35:41.559Z,57.97
2017-09-09T06:36:41.591Z,58.15
2017-09-09T06:37:41.603Z,58.25
2017-09-09T06:38:41.626Z,58.35
2017-09-09T06:39:41.662Z,58.25
2017-09-09T06:40:41.684Z,58.45
2017-09-09T06:41:41.707Z,59.02
2017-09-09T06:42:41.726Z,59.02
2017-09-09T06:43:41.769Z,58.92
2017-09-09T06:44:41.760Z,58.92
2017-09-09T06:45:41.792Z,59.31
2017-09-09T06:46:41.805Z,59.31
2017-09-09T06:47:41.820Z,59.12
2017-09-09T06:48:41.864Z,59.41
2017-09-09T06:49:41.870Z,59.44
2017-09-09T06:50:41.893Z,59.15
2017-09-09T06:51:41.907Z,58.45
2017-09-09T06:52:41.928Z,58.95
2017-09-09T06:53:41.953Z,58.76
2017-09-09T06:54:41.970Z,58.83
2017-09-09T06:55:41.992Z,59.02
2017-09-09T06:56:42.031Z,58.73
2017-09-09T06:57:42.036Z,58.15
2017-09-09T06:58:42.073Z,58.06
2017-09-09T06:59:42.078Z,58.64
2017-09-09T07:00:42.104Z,58.73
2017-09-09T07:01:42.121Z,58.83
2017-09-09T07:02:42.143Z,58.06
2017-09-09T07:03:42.169Z,58.83
2017-09-09T07:04:42.188Z,58.73
2017-09-09T07:05:42.214Z,59.02
2017-09-09T07:06:42.227Z,59.15
2017-09-09T07:07:42.338Z,58.45
2017-09-09T07:08:42.291Z,58.92
2017-09-09T07:09:42.295Z,59.05
2017-09-09T07:10:42.315Z,59.12
2017-09-09T07:11:42.337Z,59.15
2017-09-09T07:12:42.361Z,59.15
2017-09-09T07:13:42.396Z,58.95
2017-09-09T07:14:42.411Z,59.34
2017-09-09T07:15:42.427Z,59.44
2017-09-09T07:16:42.464Z,59.05
2017-09-09T07:17:42.470Z,59.34
2017-09-09T07:18:42.508Z,59.34
2017-09-09T07:19:42.521Z,59.34
2017-09-09T07:20:42.550Z,58.86
2017-09-09T07:21:42.565Z,59.15
2017-09-09T07:22:42.598Z,59.05
2017-09-09T07:23:42.606Z,58.67
2017-09-09T07:24:42.627Z,59.05
2017-09-09T07:25:42.659Z,59.05
2017-09-09T07:26:42.667Z,58.76
2017-09-09T07:27:42.700Z,58.76
2017-09-09T07:28:42.731Z,58.76
2017-09-09T07:29:42.734Z,58.76
2017-09-09T07:30:42.772Z,59.05
2017-09-09T07:31:42.782Z,57.90
2017-09-09T07:32:42.814Z,59.05
2017-09-09T07:33:42.824Z,58.28
2017-09-09T07:34:42.863Z,58.18
2017-09-09T07:35:42.865Z,58.18
2017-09-09T07:36:42.904Z,58.28
2017-09-09T07:37:42.938Z,58.76
2017-09-09T07:38:42.939Z,58.95
2017-09-09T07:39:42.960Z,58.37
2017-09-09T07:40:42.988Z,58.09
2017-09-09T07:41:43.009Z,57.90
2017-09-09T07:42:43.022Z,57.22
2017-09-09T07:43:43.051Z,57.99
2017-09-09T07:44:43.068Z,57.70
2017-09-09T07:45:43.102Z,57.70
2017-09-09T07:46:43.127Z,57.42
2017-09-09T07:47:43.133Z,56.87
2017-09-09T07:48:43.155Z,57.13
2017-09-09T07:49:43.179Z,57.03
2017-09-09T07:50:43.199Z,57.45
2017-09-09T07:51:43.221Z,57.25
2017-09-09T07:52:43.249Z,56.77
2017-09-09T07:53:43.272Z,57.03
2017-09-09T07:54:43.293Z,56.93
2017-09-09T07:55:43.311Z,56.45
2017-09-09T07:56:43.481Z,57.35
2017-09-09T07:57:43.357Z,57.32
2017-09-09T07:58:43.382Z,56.48
2017-09-09T07:59:43.400Z,56.45
2017-09-09T08:00:43.422Z,57.32
2017-09-09T08:01:43.446Z,57.51
2017-09-09T08:02:43.471Z,57.35
2017-09-09T08:03:43.496Z,57.45
2017-09-09T08:04:43.514Z,57.42
2017-09-09T08:05:43.532Z,57.45
2017-09-09T08:06:43.559Z,57.13
2017-09-09T08:07:43.584Z,57.32
2017-09-09T08:08:43.606Z,57.22
2017-09-09T08:09:43.751Z,57.13
2017-09-09T08:10:43.650Z,57.13
2017-09-09T08:11:43.669Z,57.51
2017-09-09T08:12:43.698Z,56.93
2017-09-09T08:13:43.725Z,57.32
2017-09-09T08:14:43.743Z,56.65
2017-09-09T08:15:43.764Z,57.13
2017-09-09T08:16:43.782Z,57.51
2017-09-09T08:17:43.810Z,57.13
2017-09-09T08:18:43.826Z,56.93
2017-09-09T08:19:43.850Z,56.93
2017-09-09T08:20:43.892Z,57.22
2017-09-09T08:21:43.894Z,56.93
2017-09-09T08:22:43.927Z,57.22
2017-09-09T08:23:43.995Z,57.32
2017-09-09T08:24:43.971Z,56.84
2017-09-09T08:25:43.983Z,57.22
2017-09-09T08:26:44.026Z,57.51
2017-09-09T08:27:44.031Z,57.90
2017-09-09T08:28:44.048Z,57.22
2017-09-09T08:29:44.072Z,56.93
2017-09-09T08:30:44.099Z,57.06
2017-09-09T08:31:44.125Z,56.87
2017-09-09T08:32:44.142Z,56.96
2017-09-09T08:33:44.160Z,56.77
2017-09-09T08:34:44.186Z,56.96
2017-09-09T08:35:44.204Z,56.77
2017-09-09T08:36:44.232Z,56.96
2017-09-09T08:37:44.255Z,56.96
2017-09-09T08:38:44.293Z,56.96
2017-09-09T08:39:44.300Z,57.06
2017-09-09T08:40:44.320Z,57.15
2017-09-09T08:41:44.349Z,57.15
2017-09-09T08:42:44.373Z,57.25
2017-09-09T08:43:44.393Z,57.15
2017-09-09T08:44:44.408Z,57.25
2017-09-09T08:45:44.431Z,57.15
2017-09-09T08:46:44.457Z,57.35
2017-09-09T08:47:44.498Z,57.25
2017-09-09T08:48:44.499Z,57.45
2017-09-09T08:49:44.522Z,56.77
2017-09-09T08:50:44.567Z,57.15
2017-09-09T08:51:44.565Z,57.06
2017-09-09T08:52:44.594Z,57.06
2017-09-09T08:53:44.613Z,57.45
2017-09-09T08:54:44.647Z,57.54
2017-09-09T08:55:44.690Z,57.35
2017-09-09T08:56:44.685Z,57.64
2017-09-09T08:57:44.722Z,57.73
2017-09-09T08:58:44.732Z,57.83
2017-09-09T08:59:44.782Z,57.64
2017-09-09T09:00:44.775Z,57.92
2017-09-09T09:01:44.814Z,57.92
2017-09-09T09:02:44.822Z,58.22
2017-09-09T09:03:44.838Z,58.12
2017-09-09T09:04:44.866Z,57.83
2017-09-09T09:05:44.886Z,57.73
2017-09-09T09:06:44.909Z,57.95
2017-09-09T09:07:44.937Z,58.34
2017-09-09T09:08:44.954Z,58.15
2017-09-09T09:09:44.990Z,58.22
2017-09-09T09:10:44.999Z,57.64
2017-09-09T09:11:45.025Z,57.86
2017-09-09T09:12:45.050Z,57.67
2017-09-09T09:13:45.073Z,56.99
2017-09-09T09:14:45.096Z,56.80
2017-09-09T09:15:45.113Z,57.28
2017-09-09T09:16:45.144Z,57.76
2017-09-09T09:17:45.159Z,57.76
2017-09-09T09:18:45.187Z,57.09
2017-09-09T09:19:45.210Z,57.09
2017-09-09T09:20:45.238Z,57.18
2017-09-09T09:21:45.262Z,56.90
2017-09-09T09:22:45.286Z,56.60
2017-09-09T09:23:45.298Z,56.99
2017-09-09T09:24:45.321Z,57.09
2017-09-09T09:25:45.345Z,56.90
2017-09-09T09:26:45.365Z,56.32
2017-09-09T09:27:45.389Z,56.70
2017-09-09T09:28:45.412Z,56.51
2017-09-09T09:29:45.444Z,56.60
2017-09-09T09:30:45.477Z,56.70
2017-09-09T09:31:45.485Z,56.60
2017-09-09T09:32:45.514Z,56.51
2017-09-09T09:33:45.529Z,56.12
2017-09-09T09:34:45.551Z,56.51
2017-09-09T09:35:45.574Z,56.51
2017-09-09T09:36:45.598Z,56.60
2017-09-09T09:37:45.621Z,56.51
2017-09-09T09:38:45.645Z,56.70
2017-09-09T09:39:45.668Z,56.41
2017-09-09T09:40:45.694Z,56.51
2017-09-09T09:41:45.722Z,56.32
2017-09-09T09:42:45.744Z,56.32
2017-09-09T09:43:45.762Z,56.22
2017-09-09T09:44:45.784Z,56.12
2017-09-09T09:45:45.815Z,56.32
2017-09-09T09:46:45.832Z,56.41
2017-09-09T09:47:45.857Z,56.22
2017-09-09T09:48:45.892Z,56.32
2017-09-09T09:49:45.901Z,55.65
2017-09-09T09:50:45.926Z,55.83
2017-09-09T09:51:45.949Z,55.93
2017-09-09T09:52:45.977Z,55.55
2017-09-09T09:53:45.994Z,56.03
2017-09-09T09:54:46.027Z,55.45
2017-09-09T09:55:46.041Z,55.77
2017-09-09T09:56:46.066Z,56.03
2017-09-09T09:57:46.090Z,55.55
2017-09-09T09:58:46.116Z,55.55
2017-09-09T09:59:46.144Z,55.65
2017-09-09T10:00:46.162Z,55.93
2017-09-09T10:01:46.190Z,55.87
2017-09-09T10:02:46.205Z,56.03
2017-09-09T10:03:46.227Z,55.48
2017-09-09T10:04:46.254Z,55.55
2017-09-09T10:05:46.272Z,55.45
2017-09-09T10:06:46.299Z,55.93
2017-09-09T10:07:46.329Z,56.03
2017-09-09T10:08:46.347Z,55.83
2017-09-09T10:09:46.370Z,55.74
2017-09-09T10:10:46.387Z,55.77
2017-09-09T10:11:46.420Z,55.83
2017-09-09T10:12:46.436Z,55.45
2017-09-09T10:13:46.468Z,55.55
2017-09-09T10:14:46.484Z,55.74
2017-09-09T10:15:46.507Z,55.83
2017-09-09T10:16:46.530Z,55.74
2017-09-09T10:17:46.556Z,55.45
2017-09-09T10:18:46.577Z,55.83
2017-09-09T10:19:46.605Z,55.93
2017-09-09T10:20:46.629Z,55.65
2017-09-09T10:21:46.652Z,55.74
2017-09-09T10:22:46.675Z,55.55
2017-09-09T10:23:46.696Z,55.45
2017-09-09T10:24:46.719Z,55.93
2017-09-09T10:25:46.746Z,55.87
2017-09-09T10:26:46.764Z,55.35
2017-09-09T10:27:46.795Z,55.19
2017-09-09T10:28:46.818Z,55.09
2017-09-09T10:29:46.835Z,55.09
2017-09-09T10:30:46.859Z,55.00
2017-09-09T10:31:46.884Z,55.38
2017-09-09T10:32:46.906Z,55.19
2017-09-09T10:33:46.931Z,55.09
2017-09-09T10:34:46.953Z,55.67
2017-09-09T10:35:46.979Z,55.26
2017-09-09T10:36:47.003Z,55.45
2017-09-09T10:37:47.029Z,55.45
2017-09-09T10:38:47.051Z,55.45
2017-09-09T10:39:47.067Z,56.03
2017-09-09T10:40:47.092Z,55.83
2017-09-09T10:41:47.118Z,56.12
2017-09-09T10:42:47.145Z,56.41
2017-09-09T10:43:47.167Z,55.93
2017-09-09T10:44:47.199Z,56.12
2017-09-09T10:45:47.210Z,55.93
2017-09-09T10:46:47.242Z,55.83
2017-09-09T10:47:47.255Z,56.03
2017-09-09T10:48:47.288Z,55.83
2017-09-09T10:49:47.305Z,56.03
2017-09-09T10:50:47.329Z,55.45
2017-09-09T10:51:47.351Z,55.55
2017-09-09T10:52:47.375Z,55.26
2017-09-09T10:53:47.401Z,55.55
2017-09-09T10:54:47.422Z,55.38
2017-09-09T10:55:47.456Z,55.09
2017-09-09T10:56:47.474Z,55.00
2017-09-09T10:57:47.490Z,54.90
2017-09-09T10:58:47.513Z,55.29
2017-09-09T10:59:47.544Z,55.19
2017-09-09T11:00:47.563Z,55.00
2017-09-09T11:01:47.591Z,55.00
2017-09-09T11:02:47.608Z,55.09
2017-09-09T11:03:47.630Z,54.90
2017-09-09T11:04:47.660Z,54.80
2017-09-09T11:05:47.685Z,54.97
2017-09-09T11:06:47.704Z,55.19
2017-09-09T11:07:47.727Z,55.26
2017-09-09T11:08:47.750Z,55.55
2017-09-09T11:09:47.773Z,55.74
2017-09-09T11:10:47.802Z,55.83
2017-09-09T11:11:47.826Z,55.65
2017-09-09T11:12:47.842Z,55.74
2017-09-09T11:13:47.867Z,55.35
2017-09-09T11:14:47.896Z,55.83
2017-09-09T11:15:47.912Z,56.03
2017-09-09T11:16:47.941Z,56.41
2017-09-09T11:17:47.967Z,56.32
2017-09-09T11:18:47.994Z,56.22
2017-09-09T11:19:48.010Z,56.12
2017-09-09T11:20:48.030Z,56.51
2017-09-09T11:21:48.055Z,55.93
2017-09-09T11:22:48.081Z,55.74
2017-09-09T11:23:48.098Z,55.93
2017-09-09T11:24:48.123Z,55.74
2017-09-09T11:25:48.150Z,55.93
2017-09-09T11:26:48.173Z,55.83
2017-09-09T11:27:48.204Z,55.83
2017-09-09T11:28:48.218Z,55.74
2017-09-09T11:29:48.254Z,55.74
2017-09-09T11:30:48.261Z,55.16
2017-09-09T11:31:48.288Z,55.29
2017-09-09T11:32:48.311Z,54.80
2017-09-09T11:33:48.332Z,55.19
2017-09-09T11:34:48.365Z,54.80
2017-09-09T11:35:48.381Z,55.16
2017-09-09T11:36:48.404Z,55.00
2017-09-09T11:37:48.428Z,55.19
2017-09-09T11:38:48.460Z,55.19
2017-09-09T11:39:48.473Z,55.09
2017-09-09T11:40:48.498Z,54.52
2017-09-09T11:41:48.522Z,55.00
2017-09-09T11:42:48.570Z,55.29
2017-09-09T11:43:48.569Z,55.00
2017-09-09T11:44:48.594Z,55.00
2017-09-09T11:45:48.617Z,54.97
2017-09-09T11:46:48.637Z,55.19
2017-09-09T11:47:48.665Z,55.16
2017-09-09T11:48:48.686Z,55.45
2017-09-09T11:49:48.711Z,55.48
2017-09-09T11:50:48.755Z,55.35
2017-09-09T11:51:48.755Z,55.29
2017-09-09T11:52:48.783Z,55.09
2017-09-09T11:53:48.808Z,55.96
2017-09-09T11:54:48.837Z,55.67
2017-09-09T11:55:48.851Z,55.87
2017-09-09T11:56:48.878Z,55.57
2017-09-09T11:57:48.899Z,55.96
2017-09-09T11:58:48.925Z,55.57
2017-09-09T11:59:48.944Z,55.87
2017-09-09T12:00:48.967Z,56.05
2017-09-09T12:01:49.003Z,56.05
2017-09-09T12:02:49.029Z,55.96
2017-09-09T12:03:49.042Z,55.57
2017-09-09T12:04:49.068Z,56.05
2017-09-09T12:05:49.096Z,55.96
2017-09-09T12:06:49.110Z,55.77
2017-09-09T12:07:49.149Z,55.87
2017-09-09T12:08:49.156Z,55.48
2017-09-09T12:09:49.189Z,55.38
2017-09-09T12:10:49.201Z,56.05
2017-09-09T12:11:49.228Z,55.48
2017-09-09T12:12:49.252Z,55.77
2017-09-09T12:13:49.276Z,55.38
2017-09-09T12:14:49.296Z,55.57
2017-09-09T12:15:49.328Z,55.38
2017-09-09T12:16:49.342Z,55.38
2017-09-09T12:17:49.367Z,55.19
2017-09-09T12:18:49.397Z,55.57
2017-09-09T12:19:49.414Z,55.48
2017-09-09T12:20:49.443Z,55.96
2017-09-09T12:21:49.463Z,55.19
2017-09-09T12:22:49.483Z,55.38
2017-09-09T12:23:49.507Z,55.96
2017-09-09T12:24:49.529Z,55.96
2017-09-09T12:25:49.555Z,55.77
2017-09-09T12:26:49.580Z,55.96
2017-09-09T12:27:49.618Z,56.25
2017-09-09T12:28:49.624Z,56.05
2017-09-09T12:29:49.655Z,55.87
2017-09-09T12:30:49.676Z,55.96
2017-09-09T12:31:49.695Z,55.77
2017-09-09T12:32:49.721Z,55.77
2017-09-09T12:33:49.754Z,55.67
2017-09-09T12:34:49.772Z,55.67
2017-09-09T12:35:49.789Z,55.87
2017-09-09T12:36:49.811Z,56.15
2017-09-09T12:37:49.842Z,56.12
2017-09-09T12:38:49.861Z,56.51
2017-09-09T12:39:49.882Z,56.51
2017-09-09T12:40:49.905Z,56.03
2017-09-09T12:41:49.934Z,56.05
2017-09-09T12:42:49.953Z,55.83
2017-09-09T12:43:49.976Z,56.22
2017-09-09T12:44:50.013Z,56.03
2017-09-09T12:45:50.021Z,56.32
2017-09-09T12:46:50.043Z,55.93
2017-09-09T12:47:50.076Z,56.32
2017-09-09T12:48:50.094Z,56.32
2017-09-09T12:49:50.133Z,56.25
2017-09-09T12:50:50.140Z,55.93
2017-09-09T12:51:50.164Z,56.25
2017-09-09T12:52:50.183Z,56.25